sensor_id;sensor_type;location;lat;lon;timestamp;pressure;altitude;pressure_sealevel;temperature;humidity
71772;BME280;59606;52.138;5.424;2023-07-13T00:01:32;101415.56;;;17.72;74.21
71772;BME280;59606;52.138;5.424;2023-07-13T00:03:59;101419.97;;;17.72;73.90
71772;BME280;59606;52.138;5.424;2023-07-13T00:06:26;101411.25;;;17.71;73.94
71772;BME280;59606;52.138;5.424;2023-07-13T00:08:56;101414.44;;;17.63;74.46
71772;BME280;59606;52.138;5.424;2023-07-13T00:11:23;101417.19;;;17.62;74.63
71772;BME280;59606;52.138;5.424;2023-07-13T00:13:51;101417.94;;;17.64;74.73
71772;BME280;59606;52.138;5.424;2023-07-13T00:16:17;101418.25;;;17.59;74.77
71772;BME280;59606;52.138;5.424;2023-07-13T00:18:46;101416.69;;;17.57;74.96
71772;BME280;59606;52.138;5.424;2023-07-13T00:21:13;101416.22;;;17.52;75.33
71772;BME280;59606;52.138;5.424;2023-07-13T00:23:41;101417.50;;;17.46;75.28
71772;BME280;59606;52.138;5.424;2023-07-13T00:26:09;101422.16;;;17.42;75.60
71772;BME280;59606;52.138;5.424;2023-07-13T00:28:36;101411.00;;;17.39;75.41
71772;BME280;59606;52.138;5.424;2023-07-13T00:31:03;101419.97;;;17.36;75.69
71772;BME280;59606;52.138;5.424;2023-07-13T00:33:32;101414.00;;;17.34;75.53
71772;BME280;59606;52.138;5.424;2023-07-13T00:35:59;101413.38;;;17.31;75.52
71772;BME280;59606;52.138;5.424;2023-07-13T00:38:26;101424.97;;;17.28;75.47
71772;BME280;59606;52.138;5.424;2023-07-13T00:40:52;101417.19;;;17.27;75.43
71772;BME280;59606;52.138;5.424;2023-07-13T00:43:22;101411.44;;;17.22;75.37
71772;BME280;59606;52.138;5.424;2023-07-13T00:48:19;101415.34;;;17.16;75.85
71772;BME280;59606;52.138;5.424;2023-07-13T00:50:48;101416.19;;;17.16;75.52
71772;BME280;59606;52.138;5.424;2023-07-13T00:53:17;101420.84;;;17.13;75.44
71772;BME280;59606;52.138;5.424;2023-07-13T00:55:46;101420.22;;;17.09;75.79
71772;BME280;59606;52.138;5.424;2023-07-13T00:58:13;101416.13;;;17.05;75.97
71772;BME280;59606;52.138;5.424;2023-07-13T01:00:39;101424.38;;;17.01;75.97
71772;BME280;59606;52.138;5.424;2023-07-13T01:03:07;101417.53;;;16.98;76.11
71772;BME280;59606;52.138;5.424;2023-07-13T01:05:34;101424.81;;;16.94;76.53
71772;BME280;59606;52.138;5.424;2023-07-13T01:08:02;101418.94;;;16.91;76.55
71772;BME280;59606;52.138;5.424;2023-07-13T01:10:30;101411.97;;;16.90;76.69
71772;BME280;59606;52.138;5.424;2023-07-13T01:13:07;101417.47;;;16.87;76.88
71772;BME280;59606;52.138;5.424;2023-07-13T01:15:36;101422.00;;;16.85;77.03
71772;BME280;59606;52.138;5.424;2023-07-13T01:18:05;101424.84;;;16.82;77.19
71772;BME280;59606;52.138;5.424;2023-07-13T01:20:32;101425.91;;;16.79;77.11
71772;BME280;59606;52.138;5.424;2023-07-13T01:23:08;101433.94;;;16.78;77.43
71772;BME280;59606;52.138;5.424;2023-07-13T01:25:36;101439.28;;;16.76;77.53
71772;BME280;59606;52.138;5.424;2023-07-13T01:28:05;101439.59;;;16.71;77.69
71772;BME280;59606;52.138;5.424;2023-07-13T01:30:31;101437.16;;;16.68;77.96
71772;BME280;59606;52.138;5.424;2023-07-13T01:32:58;101436.94;;;16.71;78.03
71772;BME280;59606;52.138;5.424;2023-07-13T01:35:25;101431.91;;;16.68;78.02
71772;BME280;59606;52.138;5.424;2023-07-13T01:37:53;101432.97;;;16.66;78.33
71772;BME280;59606;52.138;5.424;2023-07-13T01:40:20;101440.97;;;16.64;78.45
71772;BME280;59606;52.138;5.424;2023-07-13T01:42:47;101437.94;;;16.58;78.55
71772;BME280;59606;52.138;5.424;2023-07-13T01:45:13;101431.94;;;16.56;78.54
71772;BME280;59606;52.138;5.424;2023-07-13T01:47:40;101429.41;;;16.54;78.94
71772;BME280;59606;52.138;5.424;2023-07-13T01:50:06;101428.78;;;16.50;79.17
71772;BME280;59606;52.138;5.424;2023-07-13T01:52:33;101428.25;;;16.45;79.23
71772;BME280;59606;52.138;5.424;2023-07-13T01:55:00;101439.97;;;16.41;79.90
71772;BME280;59606;52.138;5.424;2023-07-13T01:57:26;101437.31;;;16.41;79.66
71772;BME280;59606;52.138;5.424;2023-07-13T01:59:53;101440.06;;;16.40;79.49
71772;BME280;59606;52.138;5.424;2023-07-13T02:02:19;101439.41;;;16.36;79.74
71772;BME280;59606;52.138;5.424;2023-07-13T02:04:46;101437.25;;;16.30;80.04
71772;BME280;59606;52.138;5.424;2023-07-13T02:07:12;101436.38;;;16.30;80.07
71772;BME280;59606;52.138;5.424;2023-07-13T02:09:39;101434.81;;;16.27;80.22
71772;BME280;59606;52.138;5.424;2023-07-13T02:12:06;101439.44;;;16.23;80.48
71772;BME280;59606;52.138;5.424;2023-07-13T02:14:33;101447.63;;;16.19;80.40
71772;BME280;59606;52.138;5.424;2023-07-13T02:16:59;101452.81;;;16.20;80.62
71772;BME280;59606;52.138;5.424;2023-07-13T02:19:25;101456.38;;;16.19;80.66
71772;BME280;59606;52.138;5.424;2023-07-13T02:21:52;101452.47;;;16.12;80.87
71772;BME280;59606;52.138;5.424;2023-07-13T02:24:18;101448.28;;;16.10;81.25
71772;BME280;59606;52.138;5.424;2023-07-13T02:26:47;101448.50;;;16.07;81.60
71772;BME280;59606;52.138;5.424;2023-07-13T02:29:14;101455.75;;;16.03;81.81
71772;BME280;59606;52.138;5.424;2023-07-13T02:31:41;101446.38;;;15.99;81.87
71772;BME280;59606;52.138;5.424;2023-07-13T02:34:07;101448.38;;;15.95;82.26
71772;BME280;59606;52.138;5.424;2023-07-13T02:36:34;101452.91;;;15.93;82.15
71772;BME280;59606;52.138;5.424;2023-07-13T02:39:02;101451.19;;;15.92;82.32
71772;BME280;59606;52.138;5.424;2023-07-13T02:41:29;101453.00;;;15.92;82.67
71772;BME280;59606;52.138;5.424;2023-07-13T02:43:58;101455.75;;;15.90;82.71
71772;BME280;59606;52.138;5.424;2023-07-13T02:46:31;101459.41;;;15.88;82.83
71772;BME280;59606;52.138;5.424;2023-07-13T02:48:57;101457.81;;;15.85;82.94
71772;BME280;59606;52.138;5.424;2023-07-13T02:51:24;101452.69;;;15.84;83.12
71772;BME280;59606;52.138;5.424;2023-07-13T02:53:51;101450.13;;;15.82;83.27
71772;BME280;59606;52.138;5.424;2023-07-13T02:56:21;101450.25;;;15.81;83.52
71772;BME280;59606;52.138;5.424;2023-07-13T02:58:48;101446.03;;;15.78;83.62
71772;BME280;59606;52.138;5.424;2023-07-13T03:01:14;101452.34;;;15.75;83.67
71772;BME280;59606;52.138;5.424;2023-07-13T03:03:45;101459.50;;;15.73;84.05
71772;BME280;59606;52.138;5.424;2023-07-13T03:06:13;101454.53;;;15.69;84.48
71772;BME280;59606;52.138;5.424;2023-07-13T03:08:40;101456.47;;;15.65;84.87
71772;BME280;59606;52.138;5.424;2023-07-13T03:11:09;101460.06;;;15.64;85.05
71772;BME280;59606;52.138;5.424;2023-07-13T03:13:41;101465.91;;;15.55;85.62
71772;BME280;59606;52.138;5.424;2023-07-13T03:16:09;101459.19;;;15.51;85.75
71772;BME280;59606;52.138;5.424;2023-07-13T03:18:37;101467.06;;;15.51;85.96
71772;BME280;59606;52.138;5.424;2023-07-13T03:21:05;101453.94;;;15.51;86.40
71772;BME280;59606;52.138;5.424;2023-07-13T03:23:31;101456.69;;;15.49;86.21
71772;BME280;59606;52.138;5.424;2023-07-13T03:26:24;101465.47;;;15.48;86.10
71772;BME280;59606;52.138;5.424;2023-07-13T03:28:51;101464.75;;;15.46;86.69
71772;BME280;59606;52.138;5.424;2023-07-13T03:31:21;101472.00;;;15.43;86.87
71772;BME280;59606;52.138;5.424;2023-07-13T03:33:48;101469.56;;;15.40;87.13
71772;BME280;59606;52.138;5.424;2023-07-13T03:36:17;101476.69;;;15.38;87.70
71772;BME280;59606;52.138;5.424;2023-07-13T03:38:49;101479.50;;;15.35;87.77
71772;BME280;59606;52.138;5.424;2023-07-13T03:41:16;101482.25;;;15.33;87.84
71772;BME280;59606;52.138;5.424;2023-07-13T03:43:43;101483.16;;;15.32;88.37
71772;BME280;59606;52.138;5.424;2023-07-13T03:46:09;101487.50;;;15.33;88.56
71772;BME280;59606;52.138;5.424;2023-07-13T03:48:36;101486.53;;;15.34;88.58
71772;BME280;59606;52.138;5.424;2023-07-13T03:51:03;101490.00;;;15.35;88.55
71772;BME280;59606;52.138;5.424;2023-07-13T03:53:30;101492.56;;;15.36;88.85
71772;BME280;59606;52.138;5.424;2023-07-13T03:55:56;101485.72;;;15.33;89.30
71772;BME280;59606;52.138;5.424;2023-07-13T03:58:39;101497.81;;;15.36;89.22
71772;BME280;59606;52.138;5.424;2023-07-13T04:01:08;101501.16;;;15.38;89.50
71772;BME280;59606;52.138;5.424;2023-07-13T04:03:35;101499.38;;;15.39;89.52
71772;BME280;59606;52.138;5.424;2023-07-13T04:06:05;101502.00;;;15.39;89.82
71772;BME280;59606;52.138;5.424;2023-07-13T04:08:34;101506.31;;;15.40;89.93
71772;BME280;59606;52.138;5.424;2023-07-13T04:11:02;101508.75;;;15.43;90.04
71772;BME280;59606;52.138;5.424;2023-07-13T04:13:29;101512.03;;;15.46;89.85
71772;BME280;59606;52.138;5.424;2023-07-13T04:15:56;101511.81;;;15.49;89.61
71772;BME280;59606;52.138;5.424;2023-07-13T04:18:22;101509.91;;;15.51;89.40
71772;BME280;59606;52.138;5.424;2023-07-13T04:20:50;101512.53;;;15.51;89.50
71772;BME280;59606;52.138;5.424;2023-07-13T04:23:17;101516.00;;;15.52;89.40
71772;BME280;59606;52.138;5.424;2023-07-13T04:25:45;101507.22;;;15.53;89.39
71772;BME280;59606;52.138;5.424;2023-07-13T04:28:12;101514.97;;;15.54;89.42
71772;BME280;59606;52.138;5.424;2023-07-13T04:30:39;101514.97;;;15.54;89.25
71772;BME280;59606;52.138;5.424;2023-07-13T04:33:05;101521.00;;;15.56;89.38
71772;BME280;59606;52.138;5.424;2023-07-13T04:35:32;101530.44;;;15.59;89.42
71772;BME280;59606;52.138;5.424;2023-07-13T04:37:58;101520.59;;;15.63;89.60
71772;BME280;59606;52.138;5.424;2023-07-13T04:40:26;101528.47;;;15.63;89.56
71772;BME280;59606;52.138;5.424;2023-07-13T04:42:52;101520.59;;;15.63;89.87
71772;BME280;59606;52.138;5.424;2023-07-13T04:45:19;101527.53;;;15.64;90.14
71772;BME280;59606;52.138;5.424;2023-07-13T04:47:45;101518.69;;;15.65;90.11
71772;BME280;59606;52.138;5.424;2023-07-13T04:50:13;101516.84;;;15.67;90.42
71772;BME280;59606;52.138;5.424;2023-07-13T04:52:47;101527.03;;;15.71;90.44
71772;BME280;59606;52.138;5.424;2023-07-13T04:55:14;101528.72;;;15.72;90.71
71772;BME280;59606;52.138;5.424;2023-07-13T04:57:41;101527.41;;;15.79;90.91
71772;BME280;59606;52.138;5.424;2023-07-13T05:00:08;101521.84;;;15.84;90.88
71772;BME280;59606;52.138;5.424;2023-07-13T05:02:34;101513.75;;;15.87;91.01
71772;BME280;59606;52.138;5.424;2023-07-13T05:05:02;101520.41;;;15.93;91.15
71772;BME280;59606;52.138;5.424;2023-07-13T05:07:30;101518.16;;;15.99;91.08
71772;BME280;59606;52.138;5.424;2023-07-13T05:09:59;101522.38;;;16.02;91.20
71772;BME280;59606;52.138;5.424;2023-07-13T05:12:27;101533.53;;;16.06;91.32
71772;BME280;59606;52.138;5.424;2023-07-13T05:14:53;101536.91;;;16.08;91.63
71772;BME280;59606;52.138;5.424;2023-07-13T05:17:20;101532.84;;;16.16;91.77
71772;BME280;59606;52.138;5.424;2023-07-13T05:19:46;101535.88;;;16.23;91.67
71772;BME280;59606;52.138;5.424;2023-07-13T05:22:13;101536.63;;;16.25;91.57
71772;BME280;59606;52.138;5.424;2023-07-13T05:24:40;101542.50;;;16.29;91.53
71772;BME280;59606;52.138;5.424;2023-07-13T05:27:06;101534.81;;;16.25;92.16
71772;BME280;59606;52.138;5.424;2023-07-13T05:29:33;101537.25;;;16.29;92.22
71772;BME280;59606;52.138;5.424;2023-07-13T05:31:59;101549.88;;;16.36;92.37
71772;BME280;59606;52.138;5.424;2023-07-13T05:34:26;101548.94;;;16.37;91.99
71772;BME280;59606;52.138;5.424;2023-07-13T05:36:53;101553.78;;;16.43;91.87
71772;BME280;59606;52.138;5.424;2023-07-13T05:39:19;101553.69;;;16.45;91.89
71772;BME280;59606;52.138;5.424;2023-07-13T05:41:46;101554.94;;;16.52;92.09
71772;BME280;59606;52.138;5.424;2023-07-13T05:44:13;101551.34;;;16.53;92.19
71772;BME280;59606;52.138;5.424;2023-07-13T05:46:39;101560.00;;;16.55;91.81
71772;BME280;59606;52.138;5.424;2023-07-13T05:49:06;101559.44;;;16.63;91.47
71772;BME280;59606;52.138;5.424;2023-07-13T05:51:32;101564.94;;;16.60;92.07
71772;BME280;59606;52.138;5.424;2023-07-13T05:53:58;101566.31;;;16.65;92.12
71772;BME280;59606;52.138;5.424;2023-07-13T05:56:25;101567.56;;;16.72;91.78
71772;BME280;59606;52.138;5.424;2023-07-13T05:58:52;101577.59;;;16.80;91.58
71772;BME280;59606;52.138;5.424;2023-07-13T06:01:19;101572.34;;;16.80;91.70
71772;BME280;59606;52.138;5.424;2023-07-13T06:03:47;101578.88;;;16.87;91.58
71772;BME280;59606;52.138;5.424;2023-07-13T06:06:16;101586.44;;;16.92;91.62
71772;BME280;59606;52.138;5.424;2023-07-13T06:08:43;101587.25;;;16.92;91.28
71772;BME280;59606;52.138;5.424;2023-07-13T06:11:14;101592.31;;;16.95;91.23
71772;BME280;59606;52.138;5.424;2023-07-13T06:13:41;101594.88;;;16.97;91.14
71772;BME280;59606;52.138;5.424;2023-07-13T06:16:08;101591.16;;;17.00;91.35
71772;BME280;59606;52.138;5.424;2023-07-13T06:18:36;101597.91;;;17.04;91.39
71772;BME280;59606;52.138;5.424;2023-07-13T06:21:08;101593.97;;;17.09;91.29
71772;BME280;59606;52.138;5.424;2023-07-13T06:23:35;101600.00;;;17.11;91.11
71772;BME280;59606;52.138;5.424;2023-07-13T06:26:02;101605.75;;;17.16;90.99
71772;BME280;59606;52.138;5.424;2023-07-13T06:28:29;101601.47;;;17.15;90.69
71772;BME280;59606;52.138;5.424;2023-07-13T06:30:58;101613.03;;;17.13;90.99
71772;BME280;59606;52.138;5.424;2023-07-13T06:33:25;101607.69;;;17.14;91.18
71772;BME280;59606;52.138;5.424;2023-07-13T06:35:52;101616.84;;;17.22;91.03
71772;BME280;59606;52.138;5.424;2023-07-13T06:38:18;101613.78;;;17.28;90.79
71772;BME280;59606;52.138;5.424;2023-07-13T06:40:44;101611.13;;;17.28;90.71
71772;BME280;59606;52.138;5.424;2023-07-13T06:43:11;101611.63;;;17.33;90.95
71772;BME280;59606;52.138;5.424;2023-07-13T06:45:46;101613.00;;;17.38;90.62
71772;BME280;59606;52.138;5.424;2023-07-13T06:48:19;101615.91;;;17.47;90.31
71772;BME280;59606;52.138;5.424;2023-07-13T06:50:46;101608.31;;;17.55;90.32
71772;BME280;59606;52.138;5.424;2023-07-13T06:53:12;101614.22;;;17.58;89.56
71772;BME280;59606;52.138;5.424;2023-07-13T06:55:39;101607.16;;;17.59;89.69
71772;BME280;59606;52.138;5.424;2023-07-13T06:58:06;101614.47;;;17.66;89.38
71772;BME280;59606;52.138;5.424;2023-07-13T07:00:33;101615.31;;;17.67;89.27
71772;BME280;59606;52.138;5.424;2023-07-13T07:02:59;101621.66;;;17.77;89.66
71772;BME280;59606;52.138;5.424;2023-07-13T07:05:26;101618.91;;;18.03;89.10
71772;BME280;59606;52.138;5.424;2023-07-13T07:07:54;101618.63;;;18.30;87.68
71772;BME280;59606;52.138;5.424;2023-07-13T07:10:21;101627.91;;;18.35;86.80
71772;BME280;59606;52.138;5.424;2023-07-13T07:12:48;101629.19;;;18.30;86.21
71772;BME280;59606;52.138;5.424;2023-07-13T07:15:14;101628.97;;;18.33;87.26
71772;BME280;59606;52.138;5.424;2023-07-13T07:17:41;101630.78;;;18.44;86.64
71772;BME280;59606;52.138;5.424;2023-07-13T07:20:08;101630.56;;;18.47;86.11
71772;BME280;59606;52.138;5.424;2023-07-13T07:22:35;101635.03;;;18.57;87.56
71772;BME280;59606;52.138;5.424;2023-07-13T07:25:01;101626.06;;;18.71;87.18
71772;BME280;59606;52.138;5.424;2023-07-13T07:27:29;101637.56;;;18.70;86.49
71772;BME280;59606;52.138;5.424;2023-07-13T07:29:59;101644.50;;;18.60;86.84
71772;BME280;59606;52.138;5.424;2023-07-13T07:32:29;101645.19;;;18.51;87.15
71772;BME280;59606;52.138;5.424;2023-07-13T07:35:16;101646.59;;;18.32;89.37
71772;BME280;59606;52.138;5.424;2023-07-13T07:37:43;101643.44;;;18.27;90.63
71772;BME280;59606;52.138;5.424;2023-07-13T07:40:12;101650.53;;;18.27;91.98
71772;BME280;59606;52.138;5.424;2023-07-13T07:42:42;101645.59;;;18.22;92.40
71772;BME280;59606;52.138;5.424;2023-07-13T07:45:09;101645.22;;;18.16;92.28
71772;BME280;59606;52.138;5.424;2023-07-13T07:47:37;101642.94;;;18.11;93.05
71772;BME280;59606;52.138;5.424;2023-07-13T07:50:05;101631.19;;;18.15;93.93
71772;BME280;59606;52.138;5.424;2023-07-13T07:52:32;101630.97;;;18.18;94.07
71772;BME280;59606;52.138;5.424;2023-07-13T07:54:58;101628.94;;;18.22;94.21
71772;BME280;59606;52.138;5.424;2023-07-13T07:57:28;101626.41;;;18.20;94.62
71772;BME280;59606;52.138;5.424;2023-07-13T07:59:57;101613.94;;;18.22;94.21
71772;BME280;59606;52.138;5.424;2023-07-13T08:02:27;101620.56;;;18.28;93.05
71772;BME280;59606;52.138;5.424;2023-07-13T08:04:56;101622.88;;;18.44;93.90
71772;BME280;59606;52.138;5.424;2023-07-13T08:07:26;101634.91;;;18.59;93.06
71772;BME280;59606;52.138;5.424;2023-07-13T08:09:53;101630.63;;;18.69;91.10
71772;BME280;59606;52.138;5.424;2023-07-13T08:12:20;101631.03;;;18.76;92.52
71772;BME280;59606;52.138;5.424;2023-07-13T08:15:10;101640.06;;;18.96;91.42
71772;BME280;59606;52.138;5.424;2023-07-13T08:17:37;101636.81;;;19.03;89.67
71772;BME280;59606;52.138;5.424;2023-07-13T08:20:04;101633.31;;;19.03;89.41
71772;BME280;59606;52.138;5.424;2023-07-13T08:22:31;101631.06;;;19.10;89.40
71772;BME280;59606;52.138;5.424;2023-07-13T08:24:59;101635.63;;;19.19;87.43
71772;BME280;59606;52.138;5.424;2023-07-13T08:27:27;101626.94;;;19.28;86.51
71772;BME280;59606;52.138;5.424;2023-07-13T08:29:54;101639.31;;;19.27;84.66
71772;BME280;59606;52.138;5.424;2023-07-13T08:32:22;101637.28;;;19.31;84.33
71772;BME280;59606;52.138;5.424;2023-07-13T08:34:49;101630.19;;;19.43;85.04
71772;BME280;59606;52.138;5.424;2023-07-13T08:37:17;101619.25;;;19.59;84.55
71772;BME280;59606;52.138;5.424;2023-07-13T08:39:45;101619.69;;;19.75;81.67
71772;BME280;59606;52.138;5.424;2023-07-13T08:47:23;101624.56;;;20.23;78.77
71772;BME280;59606;52.138;5.424;2023-07-13T08:49:50;101625.97;;;20.06;75.46
71772;BME280;59606;52.138;5.424;2023-07-13T08:52:32;101643.56;;;19.96;76.32
71772;BME280;59606;52.138;5.424;2023-07-13T08:55:26;101646.84;;;19.77;72.71
71772;BME280;59606;52.138;5.424;2023-07-13T08:58:21;101650.09;;;19.58;72.11
71772;BME280;59606;52.138;5.424;2023-07-13T09:03:29;101657.56;;;19.30;73.25
71772;BME280;59606;52.138;5.424;2023-07-13T09:05:58;101658.81;;;19.15;74.28
71772;BME280;59606;52.138;5.424;2023-07-13T09:08:34;101665.38;;;19.10;75.56
71772;BME280;59606;52.138;5.424;2023-07-13T09:11:29;101660.81;;;19.00;75.93
71772;BME280;59606;52.138;5.424;2023-07-13T09:16:41;101656.97;;;18.93;79.03
71772;BME280;59606;52.138;5.424;2023-07-13T09:19:11;101656.38;;;18.90;79.93
71772;BME280;59606;52.138;5.424;2023-07-13T09:21:42;101659.97;;;18.89;81.43
71772;BME280;59606;52.138;5.424;2023-07-13T09:24:38;101653.72;;;18.90;82.12
71772;BME280;59606;52.138;5.424;2023-07-13T09:27:14;101663.31;;;18.91;84.16
71772;BME280;59606;52.138;5.424;2023-07-13T09:29:51;101661.41;;;18.93;84.82
71772;BME280;59606;52.138;5.424;2023-07-13T09:32:22;101667.06;;;18.99;84.73
71772;BME280;59606;52.138;5.424;2023-07-13T09:34:52;101658.66;;;19.17;86.00
71772;BME280;59606;52.138;5.424;2023-07-13T09:37:21;101652.41;;;19.40;85.29
71772;BME280;59606;52.138;5.424;2023-07-13T09:39:49;101657.91;;;19.60;81.52
71772;BME280;59606;52.138;5.424;2023-07-13T09:42:18;101655.47;;;19.90;82.17
71772;BME280;59606;52.138;5.424;2023-07-13T09:44:56;101659.09;;;20.21;80.31
71772;BME280;59606;52.138;5.424;2023-07-13T09:47:25;101658.16;;;20.11;78.22
71772;BME280;59606;52.138;5.424;2023-07-13T09:50:04;101664.03;;;19.83;76.37
71772;BME280;59606;52.138;5.424;2023-07-13T09:52:49;101674.50;;;19.50;77.98
71772;BME280;59606;52.138;5.424;2023-07-13T09:57:52;101717.22;;;18.88;84.44
71772;BME280;59606;52.138;5.424;2023-07-13T10:00:25;101722.91;;;18.47;88.64
71772;BME280;59606;52.138;5.424;2023-07-13T10:03:19;101712.03;;;18.27;90.65
71772;BME280;59606;52.138;5.424;2023-07-13T10:05:50;101706.50;;;18.19;91.25
71772;BME280;59606;52.138;5.424;2023-07-13T10:10:53;101708.16;;;18.44;93.16
71772;BME280;59606;52.138;5.424;2023-07-13T10:13:32;101695.59;;;18.83;95.77
71772;BME280;59606;52.138;5.424;2023-07-13T10:16:01;101697.44;;;19.05;93.45
71772;BME280;59606;52.138;5.424;2023-07-13T10:18:31;101697.91;;;19.10;90.69
71772;BME280;59606;52.138;5.424;2023-07-13T10:21:11;101697.09;;;19.21;90.32
71772;BME280;59606;52.138;5.424;2023-07-13T10:24:04;101703.47;;;19.18;88.20
71772;BME280;59606;52.138;5.424;2023-07-13T10:26:33;101708.03;;;19.16;89.92
71772;BME280;59606;52.138;5.424;2023-07-13T10:29:09;101708.75;;;19.18;90.76
71772;BME280;59606;52.138;5.424;2023-07-13T10:31:40;101698.66;;;19.46;90.06
71772;BME280;59606;52.138;5.424;2023-07-13T10:34:10;101698.66;;;19.68;88.31
71772;BME280;59606;52.138;5.424;2023-07-13T10:36:44;101699.72;;;19.88;89.94
71772;BME280;59606;52.138;5.424;2023-07-13T10:39:23;101705.38;;;19.84;85.04
71772;BME280;59606;52.138;5.424;2023-07-13T10:41:55;101704.16;;;19.88;86.16
71772;BME280;59606;52.138;5.424;2023-07-13T10:44:26;101705.28;;;19.85;84.78
71772;BME280;59606;52.138;5.424;2023-07-13T10:46:58;101709.09;;;19.81;86.95
71772;BME280;59606;52.138;5.424;2023-07-13T10:49:28;101715.22;;;19.82;85.09
71772;BME280;59606;52.138;5.424;2023-07-13T10:51:55;101717.53;;;19.75;85.40
71772;BME280;59606;52.138;5.424;2023-07-13T10:57:16;101708.09;;;20.05;83.10
71772;BME280;59606;52.138;5.424;2023-07-13T11:02:34;101712.00;;;20.33;81.29
71772;BME280;59606;52.138;5.424;2023-07-13T11:05:27;101716.56;;;20.63;82.93
71772;BME280;59606;52.138;5.424;2023-07-13T11:08:03;101719.09;;;20.85;77.18
71772;BME280;59606;52.138;5.424;2023-07-13T11:10:51;101729.88;;;20.93;72.97
71772;BME280;59606;52.138;5.424;2023-07-13T11:16:35;101739.81;;;21.22;71.98
71772;BME280;59606;52.138;5.424;2023-07-13T11:21:30;101720.69;;;21.49;70.07
71772;BME280;59606;52.138;5.424;2023-07-13T11:24:17;101729.97;;;21.64;69.39
71772;BME280;59606;52.138;5.424;2023-07-13T11:31:51;101718.63;;;21.53;66.56
71772;BME280;59606;52.138;5.424;2023-07-13T11:34:25;101719.16;;;21.26;69.72
71772;BME280;59606;52.138;5.424;2023-07-13T11:36:56;101721.91;;;21.14;69.98
71772;BME280;59606;52.138;5.424;2023-07-13T11:39:34;101726.00;;;20.98;72.78
71772;BME280;59606;52.138;5.424;2023-07-13T11:42:04;101736.44;;;20.57;76.83
71772;BME280;59606;52.138;5.424;2023-07-13T11:44:33;101736.41;;;20.25;81.14
71772;BME280;59606;52.138;5.424;2023-07-13T11:47:14;101753.66;;;20.08;79.51
71772;BME280;59606;52.138;5.424;2023-07-13T11:49:45;101753.44;;;20.00;83.40
71772;BME280;59606;52.138;5.424;2023-07-13T11:52:17;101748.88;;;19.91;78.91
71772;BME280;59606;52.138;5.424;2023-07-13T11:54:56;101749.38;;;19.85;80.72
71772;BME280;59606;52.138;5.424;2023-07-13T11:57:31;101752.38;;;19.80;79.23
71772;BME280;59606;52.138;5.424;2023-07-13T12:00:11;101750.13;;;19.75;81.08
71772;BME280;59606;52.138;5.424;2023-07-13T12:02:44;101747.34;;;19.77;81.73
71772;BME280;59606;52.138;5.424;2023-07-13T12:05:16;101753.00;;;19.72;82.42
71772;BME280;59606;52.138;5.424;2023-07-13T12:07:44;101753.34;;;19.68;82.28
71772;BME280;59606;52.138;5.424;2023-07-13T12:13:02;101752.00;;;19.62;84.16
71772;BME280;59606;52.138;5.424;2023-07-13T12:15:38;101756.47;;;19.62;85.91
71772;BME280;59606;52.138;5.424;2023-07-13T12:18:18;101754.91;;;19.59;86.19
71772;BME280;59606;52.138;5.424;2023-07-13T12:20:46;101749.00;;;19.78;88.78
71772;BME280;59606;52.138;5.424;2023-07-13T12:23:23;101754.06;;;19.92;87.79
71772;BME280;59606;52.138;5.424;2023-07-13T12:25:52;101750.31;;;19.95;87.58
71772;BME280;59606;52.138;5.424;2023-07-13T12:28:47;101749.72;;;19.91;85.94
71772;BME280;59606;52.138;5.424;2023-07-13T12:34:06;101746.94;;;20.04;86.28
71772;BME280;59606;52.138;5.424;2023-07-13T12:36:36;101752.03;;;20.28;85.74
71772;BME280;59606;52.138;5.424;2023-07-13T12:39:21;101745.03;;;20.38;85.52
71772;BME280;59606;52.138;5.424;2023-07-13T12:41:50;101749.44;;;20.60;80.16
71772;BME280;59606;52.138;5.424;2023-07-13T12:44:25;101744.41;;;20.78;84.25
71772;BME280;59606;52.138;5.424;2023-07-13T12:46:56;101744.72;;;21.06;78.36
71772;BME280;59606;52.138;5.424;2023-07-13T12:49:27;101737.75;;;21.05;76.32
71772;BME280;59606;52.138;5.424;2023-07-13T12:51:59;101745.31;;;20.88;75.45
71772;BME280;59606;52.138;5.424;2023-07-13T12:54:27;101746.41;;;20.65;73.40
71772;BME280;59606;52.138;5.424;2023-07-13T12:56:55;101754.50;;;20.63;75.02
71772;BME280;59606;52.138;5.424;2023-07-13T12:59:27;101748.75;;;20.79;72.03
71772;BME280;59606;52.138;5.424;2023-07-13T13:01:55;101737.31;;;21.00;74.89
71772;BME280;59606;52.138;5.424;2023-07-13T13:04:22;101733.94;;;21.18;71.07
71772;BME280;59606;52.138;5.424;2023-07-13T13:07:01;101743.84;;;21.16;70.90
71772;BME280;59606;52.138;5.424;2023-07-13T13:09:27;101745.03;;;21.12;70.64
71772;BME280;59606;52.138;5.424;2023-07-13T13:11:54;101744.88;;;21.04;71.37
71772;BME280;59606;52.138;5.424;2023-07-13T13:14:20;101748.72;;;21.21;73.26
71772;BME280;59606;52.138;5.424;2023-07-13T13:16:49;101742.19;;;21.46;69.54
71772;BME280;59606;52.138;5.424;2023-07-13T13:19:21;101742.47;;;21.43;69.70
71772;BME280;59606;52.138;5.424;2023-07-13T13:21:49;101746.34;;;21.39;69.50
71772;BME280;59606;52.138;5.424;2023-07-13T13:24:22;101739.97;;;21.51;71.93
71772;BME280;59606;52.138;5.424;2023-07-13T13:26:50;101743.88;;;21.87;71.16
71772;BME280;59606;52.138;5.424;2023-07-13T13:29:21;101745.44;;;21.90;67.47
71772;BME280;59606;52.138;5.424;2023-07-13T13:31:52;101752.06;;;21.75;62.74
71772;BME280;59606;52.138;5.424;2023-07-13T13:34:20;101753.50;;;21.88;63.63
71772;BME280;59606;52.138;5.424;2023-07-13T13:36:47;101754.03;;;21.82;62.56
71772;BME280;59606;52.138;5.424;2023-07-13T13:39:23;101748.81;;;21.61;63.98
71772;BME280;59606;52.138;5.424;2023-07-13T13:41:52;101751.13;;;21.45;62.61
71772;BME280;59606;52.138;5.424;2023-07-13T13:44:20;101752.78;;;21.46;63.20